Statistiken

Seite 338 von 349 |< · · [335] [336] [337] [338] [339] [340] [341] · · >|

Die neuesten Zitate

Nr. Zitat Pkte. Bew. Aufr. Mails Kom. Datum
16851 Eine Investition in Wissen bringt noch immer ... 1.4118 170 43758 33 3 04.08.05 18:55
16852 Es gibt keinen Weg zum Frieden, denn Frieden ist der Weg. ... 1.4107 224 74652 29 16 04.08.05 18:55
16853 Sie wissen, wir leben im Zeitalter der Abkürzungen. ... 1.4074 243 28354 37 8 04.08.05 18:55
16854 Derjenige, der etwas zerbricht, um herauszufinden, ... 1.4070 86 14931 7 21 04.08.05 18:55
16855 Bei der Eroberung des Weltraums sind zwei ... 1.4044 136 14853 17 51 04.08.05 18:55
16856 Ich weiß, dass ich nichts weiß. ... 1.4012 501 208218 176 225 04.08.05 18:55
16857 Es hilft nichts, das Recht auf seiner Seite ... 1.4000 75 9234 16 15 04.08.05 18:55
16858 Ein Dutzend verlogener Komplimente ist leichter ... 1.4000 55 13178 4 4 04.08.05 18:55
16859 Es ist einfacher, kritisch zu sein als korrekt. ... 1.4000 55 6646 5 0 04.08.05 18:55
16860 Nicht wenige Experten sehen ihre Daseinsberechtigung ... 1.4000 25 6921 4 5 04.08.05 18:55
16861 Wenn man einen Menschen richtig beurteilen ... 1.3974 78 17401 15 10 04.08.05 18:55
16862 Kein Problem wird gelöst, wenn wir träge ... 1.3963 328 15110 16 6 04.08.05 18:55
16863 Der Beweis von Heldentum liegt nicht im Gewinnen ... 1.3947 76 16278 9 3 04.08.05 18:55
16864 Nicht den Tod sollte man fürchten, sondern ... 1.3945 218 45234 28 17 04.08.05 18:55
16865 Pünktlichkeit ist die Kunst abzuschätzen ... 1.3944 71 15778 10 13 04.08.05 18:55
16866 Es gibt zwei Möglichkeiten, Karriere zu machen: ... 1.3892 203 32771 36 4 04.08.05 18:55
16867 Der Schwache kann nicht verzeihen. Verzeihen ... 1.3883 291 66377 60 37 04.08.05 18:55
16868 Interessante Selbstgespräche setzen einen ... 1.3871 93 20289 18 12 04.08.05 18:55
16869 Die Bosheit trinkt die Hälfte ihres eigenen Giftes. ... 1.3860 57 8839 5 13 04.08.05 18:55
16870 Die Politik ist das Paradies zungenfertiger Schwätzer. ... 1.3857 70 10540 10 7 04.08.05 18:55
16871 Als die ersten Missionare nach Afrika kamen, ... 1.3846 130 15002 12 7 04.08.05 18:55
16872 Journalisten sind die Geburtshelfer und Totengräber ... 1.3846 26 4193 2 0 04.08.05 18:55
16873 Auch eine Enttäuschung, wenn sie nur gründlich ... 1.3838 185 62798 43 15 04.08.05 18:55
16874 Ausdauer wird früher oder später belohnt ... 1.3804 92 21257 17 25 04.08.05 18:55
16875 Jetzt sind die guten alten Zeiten, nach denen ... 1.3795 195 46751 20 3 04.08.05 18:55
16876 Glaube denen, die die Wahrheit suchen, und ... 1.3789 161 31974 22 44 04.08.05 18:55
16877 Mit einem kurzen Schweifwedeln kann ein Hund ... 1.3780 127 16668 9 2 04.08.05 18:55
16878 Wenn du den Wert des Geldes kennenlernen ... 1.3772 114 13250 7 2 04.08.05 18:55
16879 Wenn zwei Philosophen zusammentreffen, ist ... 1.3750 56 9289 3 9 04.08.05 18:55
16880 Man soll schweigen oder Dinge sagen, die ... 1.3731 67 16428 17 17 04.08.05 18:55
16881 Am Anfang gehören alle Gedanken der Liebe. ... 1.3692 195 43505 36 4 04.08.05 18:55
16882 Alte Knaben haben genauso ihr Spielzeug wie ... 1.3678 87 8909 13 3 04.08.05 18:55
16883 Wer eine gute, verständige und schöne Frau ... 1.3673 147 28481 23 16 04.08.05 18:55
16884 Meine Pünktlichkeit drückt aus, dass mir ... 1.3667 90 18999 8 9 04.08.05 18:55
16885 Ein kluger Mann macht nicht alle Fehler selbst. ... 1.3665 161 29791 28 13 04.08.05 18:55
16886 Gibt es eine bessere Form mit dem Leben fertig ... 1.3664 131 33928 40 20 04.08.05 18:55
16887 Halte immer an der Gegenwart fest. Jeder ... 1.3661 112 25443 24 8 04.08.05 18:55
16888 Wenn sich die Gäste wie zu Hause fühlen, ... 1.3651 63 15591 5 29 04.08.05 18:55
16889 Für den gläubigen Menschen steht Gott am ... 1.3647 85 14221 5 19 04.08.05 18:55
16890 Die Einkommensteuer hat mehr Menschen zu ... 1.3636 44 8000 5 5 04.08.05 18:55
16891 Der Mensch ist frei geboren, und liegt doch ... 1.3621 116 40294 14 17 04.08.05 18:55
16892 Jeder Mensch macht Fehler. Das Kunststück ... 1.3608 97 27836 15 6 04.08.05 18:55
16893 Frauen sind Wesen, die uns mit dem Wunsch ... 1.3596 114 19535 16 14 04.08.05 18:55
16894 In Deutschland ist die höchste Form der Anerkennung ... 1.3590 156 21283 43 10 04.08.05 18:55
16895 Sicher verdanken einige Millionäre ihren ... 1.3590 78 9884 9 2 04.08.05 18:55
16896 Ein Zyniker ist ein Mensch, der die Dinge ... 1.3568 227 11523 18 5 04.08.05 18:55
16897 Wahre Freundschaft ist eine sehr langsam wachsende Pflanze. ... 1.3558 104 32212 8 7 04.08.05 18:55
16898 Ich bin durchaus nicht zynisch, ich habe ... 1.3529 68 16412 11 6 04.08.05 18:55
16899 Ein Buch ist ein Spiegel, wenn ein Affe hineinsieht, ... 1.3500 240 34105 19 7 04.08.05 18:55
16900 Menschen mit einer neuen Idee gelten so lange ... 1.3494 83 26148 9 4 04.08.05 18:55

[Favoriten] [Punkte] [Bewertungen] [Aufrufe] [Mails] [Kommentare] [Datum]

Seite 338 von 349 |< · < · [1] [2] [3] [4] [5] [6] [7] [8] [9] [10] [11] [12] [13] [14] [15] [16] [17] [18] [19] [20] [21] [22] [23] [24] [25] [26] [27] [28] [29] [30] [31] [32] [33] [34] [35] [36] [37] [38] [39] [40] [41] [42] [43] [44] [45] [46] [47] [48] [49] [50] [51] [52] [53] [54] [55] [56] [57] [58] [59] [60] [61] [62] [63] [64] [65] [66] [67] [68] [69] [70] [71] [72] [73] [74] [75] [76] [77] [78] [79] [80] [81] [82] [83] [84] [85] [86] [87] [88] [89] [90] [91] [92] [93] [94] [95] [96] [97] [98] [99] [100] [101] [102] [103] [104] [105] [106] [107] [108] [109] [110] [111] [112] [113] [114] [115] [116] [117] [118] [119] [120] [121] [122] [123] [124] [125] [126] [127] [128] [129] [130] [131] [132] [133] [134] [135] [136] [137] [138] [139] [140] [141] [142] [143] [144] [145] [146] [147] [148] [149] [150] [151] [152] [153] [154] [155] [156] [157] [158] [159] [160] [161] [162] [163] [164] [165] [166] [167] [168] [169] [170] [171] [172] [173] [174] [175] [176] [177] [178] [179] [180] [181] [182] [183] [184] [185] [186] [187] [188] [189] [190] [191] [192] [193] [194] [195] [196] [197] [198] [199] [200] [201] [202] [203] [204] [205] [206] [207] [208] [209] [210] [211] [212] [213] [214] [215] [216] [217] [218] [219] [220] [221] [222] [223] [224] [225] [226] [227] [228] [229] [230] [231] [232] [233] [234] [235] [236] [237] [238] [239] [240] [241] [242] [243] [244] [245] [246] [247] [248] [249] [250] [251] [252] [253] [254] [255] [256] [257] [258] [259] [260] [261] [262] [263] [264] [265] [266] [267] [268] [269] [270] [271] [272] [273] [274] [275] [276] [277] [278] [279] [280] [281] [282] [283] [284] [285] [286] [287] [288] [289] [290] [291] [292] [293] [294] [295] [296] [297] [298] [299] [300] [301] [302] [303] [304] [305] [306] [307] [308] [309] [310] [311] [312] [313] [314] [315] [316] [317] [318] [319] [320] [321] [322] [323] [324] [325] [326] [327] [328] [329] [330] [331] [332] [333] [334] [335] [336] [337] [338] [339] [340] [341] [342] [343] [344] [345] [346] [347] [348] [349] · > · >|

Zuletzt gesucht